sensor_id;sensor_type;location;lat;lon;timestamp;P1;durP1;ratioP1;P2;durP2;ratioP2
52188;SDS011;38162;45.926;13.608;2024-03-02T00:00:07;23.67;;;11.85;;
52188;SDS011;38162;45.926;13.608;2024-03-02T00:05:22;19.38;;;10.93;;
52188;SDS011;38162;45.926;13.608;2024-03-02T00:07:55;18.95;;;10.88;;
52188;SDS011;38162;45.926;13.608;2024-03-02T00:10:25;17.60;;;11.32;;
52188;SDS011;38162;45.926;13.608;2024-03-02T00:12:56;24.27;;;12.60;;
52188;SDS011;38162;45.926;13.608;2024-03-02T00:18:11;19.48;;;11.07;;
52188;SDS011;38162;45.926;13.608;2024-03-02T00:20:38;18.60;;;11.55;;
52188;SDS011;38162;45.926;13.608;2024-03-02T00:23:05;19.65;;;11.82;;
52188;SDS011;38162;45.926;13.608;2024-03-02T00:25:42;20.27;;;12.18;;
52188;SDS011;38162;45.926;13.608;2024-03-02T00:28:29;21.10;;;11.15;;
52188;SDS011;38162;45.926;13.608;2024-03-02T00:31:08;19.20;;;10.95;;
52188;SDS011;38162;45.926;13.608;2024-03-02T00:36:11;19.00;;;11.95;;
52188;SDS011;38162;45.926;13.608;2024-03-02T00:38:49;19.80;;;11.57;;
52188;SDS011;38162;45.926;13.608;2024-03-02T00:41:23;16.95;;;10.75;;
52188;SDS011;38162;45.926;13.608;2024-03-02T00:46:34;21.58;;;12.85;;
52188;SDS011;38162;45.926;13.608;2024-03-02T00:51:37;18.58;;;12.18;;
52188;SDS011;38162;45.926;13.608;2024-03-02T00:54:05;22.13;;;13.00;;
52188;SDS011;38162;45.926;13.608;2024-03-02T00:56:34;23.27;;;13.00;;
52188;SDS011;38162;45.926;13.608;2024-03-02T00:59:22;15.02;;;10.82;;
52188;SDS011;38162;45.926;13.608;2024-03-02T01:08:38;16.90;;;9.05;;
52188;SDS011;38162;45.926;13.608;2024-03-02T01:14:41;14.50;;;6.45;;
52188;SDS011;38162;45.926;13.608;2024-03-02T01:17:19;17.02;;;8.43;;
52188;SDS011;38162;45.926;13.608;2024-03-02T01:19:53;20.45;;;9.18;;
52188;SDS011;38162;45.926;13.608;2024-03-02T01:22:23;16.20;;;8.90;;
52188;SDS011;38162;45.926;13.608;2024-03-02T01:24:52;17.58;;;9.52;;
52188;SDS011;38162;45.926;13.608;2024-03-02T01:27:20;12.85;;;8.65;;
52188;SDS011;38162;45.926;13.608;2024-03-02T01:29:46;18.20;;;9.02;;
52188;SDS011;38162;45.926;13.608;2024-03-02T01:32:12;18.73;;;8.30;;
52188;SDS011;38162;45.926;13.608;2024-03-02T01:34:38;11.88;;;7.95;;
52188;SDS011;38162;45.926;13.608;2024-03-02T01:37:04;19.90;;;8.65;;
52188;SDS011;38162;45.926;13.608;2024-03-02T01:39:29;18.58;;;8.32;;
52188;SDS011;38162;45.926;13.608;2024-03-02T01:41:55;17.52;;;8.43;;
52188;SDS011;38162;45.926;13.608;2024-03-02T01:44:21;18.95;;;8.55;;
52188;SDS011;38162;45.926;13.608;2024-03-02T01:46:47;17.50;;;8.95;;
52188;SDS011;38162;45.926;13.608;2024-03-02T01:49:12;16.45;;;7.57;;
52188;SDS011;38162;45.926;13.608;2024-03-02T01:51:38;14.25;;;7.57;;
52188;SDS011;38162;45.926;13.608;2024-03-02T01:54:04;17.40;;;7.88;;
52188;SDS011;38162;45.926;13.608;2024-03-02T01:56:30;11.80;;;7.10;;
52188;SDS011;38162;45.926;13.608;2024-03-02T01:58:56;13.35;;;7.57;;
52188;SDS011;38162;45.926;13.608;2024-03-02T02:01:21;12.52;;;7.85;;
52188;SDS011;38162;45.926;13.608;2024-03-02T02:03:47;16.38;;;7.75;;
52188;SDS011;38162;45.926;13.608;2024-03-02T02:06:13;14.60;;;7.70;;
52188;SDS011;38162;45.926;13.608;2024-03-02T02:08:38;13.63;;;7.18;;
52188;SDS011;38162;45.926;13.608;2024-03-02T02:11:04;15.95;;;8.10;;
52188;SDS011;38162;45.926;13.608;2024-03-02T02:13:30;15.93;;;8.13;;
52188;SDS011;38162;45.926;13.608;2024-03-02T02:16:03;16.80;;;7.88;;
52188;SDS011;38162;45.926;13.608;2024-03-02T02:18:33;15.60;;;7.35;;
52188;SDS011;38162;45.926;13.608;2024-03-02T02:20:59;17.23;;;6.82;;
52188;SDS011;38162;45.926;13.608;2024-03-02T02:23:25;13.75;;;7.13;;
52188;SDS011;38162;45.926;13.608;2024-03-02T02:25:50;16.83;;;6.65;;
52188;SDS011;38162;45.926;13.608;2024-03-02T02:28:16;11.98;;;6.47;;
52188;SDS011;38162;45.926;13.608;2024-03-02T02:30:42;15.57;;;6.03;;
52188;SDS011;38162;45.926;13.608;2024-03-02T02:33:09;12.15;;;5.43;;
52188;SDS011;38162;45.926;13.608;2024-03-02T02:35:48;13.20;;;5.45;;
52188;SDS011;38162;45.926;13.608;2024-03-02T02:42:14;9.23;;;5.53;;
52188;SDS011;38162;45.926;13.608;2024-03-02T02:45:06;16.38;;;6.55;;
52188;SDS011;38162;45.926;13.608;2024-03-02T02:47:48;13.75;;;5.50;;
52188;SDS011;38162;45.926;13.608;2024-03-02T02:50:38;12.23;;;5.25;;
52188;SDS011;38162;45.926;13.608;2024-03-02T02:53:03;9.80;;;4.55;;
52188;SDS011;38162;45.926;13.608;2024-03-02T02:56:33;10.02;;;5.15;;
52188;SDS011;38162;45.926;13.608;2024-03-02T02:58:40;17.58;;;5.00;;
52188;SDS011;38162;45.926;13.608;2024-03-02T03:01:20;11.70;;;5.20;;
52188;SDS011;38162;45.926;13.608;2024-03-02T03:03:46;17.05;;;7.03;;
52188;SDS011;38162;45.926;13.608;2024-03-02T03:06:12;12.20;;;6.63;;
52188;SDS011;38162;45.926;13.608;2024-03-02T03:08:38;18.77;;;6.10;;
52188;SDS011;38162;45.926;13.608;2024-03-02T03:11:04;10.95;;;5.53;;
52188;SDS011;38162;45.926;13.608;2024-03-02T03:13:33;13.40;;;6.38;;
52188;SDS011;38162;45.926;13.608;2024-03-02T03:15:59;12.07;;;7.22;;
52188;SDS011;38162;45.926;13.608;2024-03-02T03:18:25;15.70;;;7.50;;
52188;SDS011;38162;45.926;13.608;2024-03-02T03:20:51;17.67;;;7.43;;
52188;SDS011;38162;45.926;13.608;2024-03-02T03:23:16;13.55;;;7.10;;
52188;SDS011;38162;45.926;13.608;2024-03-02T03:25:42;15.68;;;7.47;;
52188;SDS011;38162;45.926;13.608;2024-03-02T03:28:09;14.75;;;7.68;;
52188;SDS011;38162;45.926;13.608;2024-03-02T03:30:38;16.48;;;6.88;;
52188;SDS011;38162;45.926;13.608;2024-03-02T03:33:04;18.88;;;7.55;;
52188;SDS011;38162;45.926;13.608;2024-03-02T03:35:33;15.60;;;7.57;;
52188;SDS011;38162;45.926;13.608;2024-03-02T03:38:00;12.63;;;7.00;;
52188;SDS011;38162;45.926;13.608;2024-03-02T03:40:26;14.32;;;7.13;;
52188;SDS011;38162;45.926;13.608;2024-03-02T03:42:51;13.57;;;7.00;;
52188;SDS011;38162;45.926;13.608;2024-03-02T03:45:18;11.57;;;6.57;;
52188;SDS011;38162;45.926;13.608;2024-03-02T03:47:44;12.60;;;5.97;;
52188;SDS011;38162;45.926;13.608;2024-03-02T03:50:10;20.27;;;6.53;;
52188;SDS011;38162;45.926;13.608;2024-03-02T03:52:36;15.60;;;6.57;;
52188;SDS011;38162;45.926;13.608;2024-03-02T03:55:01;13.52;;;6.57;;
52188;SDS011;38162;45.926;13.608;2024-03-02T03:57:27;14.00;;;7.05;;
52188;SDS011;38162;45.926;13.608;2024-03-02T03:59:53;15.48;;;7.43;;
52188;SDS011;38162;45.926;13.608;2024-03-02T04:02:19;9.82;;;6.07;;
52188;SDS011;38162;45.926;13.608;2024-03-02T04:04:44;10.00;;;6.47;;
52188;SDS011;38162;45.926;13.608;2024-03-02T04:07:11;20.60;;;7.80;;
52188;SDS011;38162;45.926;13.608;2024-03-02T04:09:37;15.50;;;9.75;;
52188;SDS011;38162;45.926;13.608;2024-03-02T04:22:48;14.15;;;7.15;;
52188;SDS011;38162;45.926;13.608;2024-03-02T04:26:23;14.75;;;6.85;;
52188;SDS011;38162;45.926;13.608;2024-03-02T04:32:07;10.80;;;7.22;;
52188;SDS011;38162;45.926;13.608;2024-03-02T04:38:23;12.05;;;7.60;;
52188;SDS011;38162;45.926;13.608;2024-03-02T04:40:49;13.15;;;7.65;;
52188;SDS011;38162;45.926;13.608;2024-03-02T04:43:14;13.23;;;7.10;;
52188;SDS011;38162;45.926;13.608;2024-03-02T04:45:41;14.52;;;6.82;;
52188;SDS011;38162;45.926;13.608;2024-03-02T04:48:07;10.07;;;6.35;;
52188;SDS011;38162;45.926;13.608;2024-03-02T04:50:33;9.52;;;6.82;;
52188;SDS011;38162;45.926;13.608;2024-03-02T04:52:59;10.40;;;5.78;;
52188;SDS011;38162;45.926;13.608;2024-03-02T04:55:25;14.02;;;6.82;;
52188;SDS011;38162;45.926;13.608;2024-03-02T04:57:53;13.48;;;5.90;;
52188;SDS011;38162;45.926;13.608;2024-03-02T05:00:22;11.05;;;5.75;;
52188;SDS011;38162;45.926;13.608;2024-03-02T05:02:48;12.60;;;5.10;;
52188;SDS011;38162;45.926;13.608;2024-03-02T05:05:13;9.32;;;5.13;;
52188;SDS011;38162;45.926;13.608;2024-03-02T05:07:42;13.13;;;4.85;;
52188;SDS011;38162;45.926;13.608;2024-03-02T05:10:09;11.25;;;4.95;;
52188;SDS011;38162;45.926;13.608;2024-03-02T05:12:37;13.27;;;5.10;;
52188;SDS011;38162;45.926;13.608;2024-03-02T05:15:21;11.38;;;4.95;;
52188;SDS011;38162;45.926;13.608;2024-03-02T05:17:47;8.88;;;4.32;;
52188;SDS011;38162;45.926;13.608;2024-03-02T05:20:13;12.02;;;4.63;;
52188;SDS011;38162;45.926;13.608;2024-03-02T05:22:39;8.30;;;4.05;;
52188;SDS011;38162;45.926;13.608;2024-03-02T05:25:05;9.00;;;3.90;;
52188;SDS011;38162;45.926;13.608;2024-03-02T05:27:31;10.77;;;4.38;;
52188;SDS011;38162;45.926;13.608;2024-03-02T05:30:00;10.35;;;4.85;;
52188;SDS011;38162;45.926;13.608;2024-03-02T05:32:27;8.20;;;3.90;;
52188;SDS011;38162;45.926;13.608;2024-03-02T05:34:53;7.07;;;4.13;;
52188;SDS011;38162;45.926;13.608;2024-03-02T05:37:20;5.20;;;3.85;;
52188;SDS011;38162;45.926;13.608;2024-03-02T05:39:45;7.25;;;3.92;;
52188;SDS011;38162;45.926;13.608;2024-03-02T05:42:11;8.05;;;4.57;;
52188;SDS011;38162;45.926;13.608;2024-03-02T05:44:37;5.38;;;3.88;;
52188;SDS011;38162;45.926;13.608;2024-03-02T05:47:03;7.10;;;3.95;;
52188;SDS011;38162;45.926;13.608;2024-03-02T05:56:57;7.75;;;3.67;;
52188;SDS011;38162;45.926;13.608;2024-03-02T06:02:57;6.65;;;4.00;;
52188;SDS011;38162;45.926;13.608;2024-03-02T06:06:00;5.03;;;3.83;;
52188;SDS011;38162;45.926;13.608;2024-03-02T06:09:26;5.30;;;3.97;;
52188;SDS011;38162;45.926;13.608;2024-03-02T06:12:18;5.72;;;3.53;;
52188;SDS011;38162;45.926;13.608;2024-03-02T06:18:30;8.25;;;3.47;;
52188;SDS011;38162;45.926;13.608;2024-03-02T06:20:56;7.82;;;3.20;;
52188;SDS011;38162;45.926;13.608;2024-03-02T06:23:22;7.82;;;3.58;;
52188;SDS011;38162;45.926;13.608;2024-03-02T06:25:48;6.68;;;3.60;;
52188;SDS011;38162;45.926;13.608;2024-03-02T06:28:14;10.60;;;3.88;;
52188;SDS011;38162;45.926;13.608;2024-03-02T06:30:41;6.55;;;3.50;;
52188;SDS011;38162;45.926;13.608;2024-03-02T06:33:08;6.38;;;3.40;;
52188;SDS011;38162;45.926;13.608;2024-03-02T06:35:34;11.38;;;5.22;;
52188;SDS011;38162;45.926;13.608;2024-03-02T06:38:03;8.20;;;5.10;;
52188;SDS011;38162;45.926;13.608;2024-03-02T06:40:32;7.78;;;5.40;;
52188;SDS011;38162;45.926;13.608;2024-03-02T06:42:59;10.88;;;5.97;;
52188;SDS011;38162;45.926;13.608;2024-03-02T06:45:24;9.32;;;6.13;;
52188;SDS011;38162;45.926;13.608;2024-03-02T06:47:50;15.05;;;6.63;;
52188;SDS011;38162;45.926;13.608;2024-03-02T06:50:16;12.27;;;6.88;;
52188;SDS011;38162;45.926;13.608;2024-03-02T06:52:42;11.20;;;6.30;;
52188;SDS011;38162;45.926;13.608;2024-03-02T06:55:08;10.23;;;6.55;;
52188;SDS011;38162;45.926;13.608;2024-03-02T06:57:34;11.13;;;5.85;;
52188;SDS011;38162;45.926;13.608;2024-03-02T07:00:00;10.57;;;6.50;;
52188;SDS011;38162;45.926;13.608;2024-03-02T07:02:25;7.90;;;6.28;;
52188;SDS011;38162;45.926;13.608;2024-03-02T07:04:54;15.73;;;6.43;;
52188;SDS011;38162;45.926;13.608;2024-03-02T07:07:20;8.27;;;5.95;;
52188;SDS011;38162;45.926;13.608;2024-03-02T07:09:46;9.40;;;5.40;;
52188;SDS011;38162;45.926;13.608;2024-03-02T07:12:13;7.90;;;5.57;;
52188;SDS011;38162;45.926;13.608;2024-03-02T07:14:39;10.52;;;5.47;;
52188;SDS011;38162;45.926;13.608;2024-03-02T07:17:23;8.20;;;4.95;;
52188;SDS011;38162;45.926;13.608;2024-03-02T07:19:51;8.05;;;4.63;;
52188;SDS011;38162;45.926;13.608;2024-03-02T07:22:17;7.43;;;5.22;;
52188;SDS011;38162;45.926;13.608;2024-03-02T07:24:43;9.30;;;5.38;;
52188;SDS011;38162;45.926;13.608;2024-03-02T07:34:34;8.63;;;5.68;;
52188;SDS011;38162;45.926;13.608;2024-03-02T07:44:05;7.07;;;4.17;;
52188;SDS011;38162;45.926;13.608;2024-03-02T07:46:34;8.68;;;4.10;;
52188;SDS011;38162;45.926;13.608;2024-03-02T07:49:36;6.85;;;4.78;;
52188;SDS011;38162;45.926;13.608;2024-03-02T07:52:03;6.13;;;4.18;;
52188;SDS011;38162;45.926;13.608;2024-03-02T07:54:29;6.38;;;4.07;;
52188;SDS011;38162;45.926;13.608;2024-03-02T07:56:55;8.57;;;4.15;;
52188;SDS011;38162;45.926;13.608;2024-03-02T07:59:20;5.72;;;3.90;;
52188;SDS011;38162;45.926;13.608;2024-03-02T08:01:47;6.38;;;4.47;;
52188;SDS011;38162;45.926;13.608;2024-03-02T08:04:14;8.05;;;4.40;;
52188;SDS011;38162;45.926;13.608;2024-03-02T08:06:40;12.68;;;5.57;;
52188;SDS011;38162;45.926;13.608;2024-03-02T08:09:06;8.60;;;5.82;;
52188;SDS011;38162;45.926;13.608;2024-03-02T08:11:35;13.07;;;7.30;;
52188;SDS011;38162;45.926;13.608;2024-03-02T08:14:01;8.73;;;6.53;;
52188;SDS011;38162;45.926;13.608;2024-03-02T08:16:27;10.00;;;6.53;;
52188;SDS011;38162;45.926;13.608;2024-03-02T08:18:53;14.10;;;6.47;;
52188;SDS011;38162;45.926;13.608;2024-03-02T08:21:19;13.70;;;7.50;;
52188;SDS011;38162;45.926;13.608;2024-03-02T08:23:45;11.73;;;6.80;;
52188;SDS011;38162;45.926;13.608;2024-03-02T08:26:11;9.95;;;6.90;;
52188;SDS011;38162;45.926;13.608;2024-03-02T08:28:37;12.18;;;6.57;;
52188;SDS011;38162;45.926;13.608;2024-03-02T08:31:05;12.75;;;7.28;;
52188;SDS011;38162;45.926;13.608;2024-03-02T08:33:32;11.70;;;6.68;;
52188;SDS011;38162;45.926;13.608;2024-03-02T08:35:57;12.93;;;6.95;;
52188;SDS011;38162;45.926;13.608;2024-03-02T08:38:24;12.57;;;6.93;;
52188;SDS011;38162;45.926;13.608;2024-03-02T08:40:51;8.60;;;6.30;;
52188;SDS011;38162;45.926;13.608;2024-03-02T08:43:17;12.38;;;6.60;;
52188;SDS011;38162;45.926;13.608;2024-03-02T08:45:44;11.25;;;6.47;;
52188;SDS011;38162;45.926;13.608;2024-03-02T08:48:10;8.30;;;6.40;;
52188;SDS011;38162;45.926;13.608;2024-03-02T08:50:36;8.30;;;5.57;;
52188;SDS011;38162;45.926;13.608;2024-03-02T08:53:03;9.20;;;5.78;;
52188;SDS011;38162;45.926;13.608;2024-03-02T08:55:29;7.72;;;6.40;;
52188;SDS011;38162;45.926;13.608;2024-03-02T08:57:55;11.57;;;5.53;;
52188;SDS011;38162;45.926;13.608;2024-03-02T09:01:03;13.30;;;5.55;;
52188;SDS011;38162;45.926;13.608;2024-03-02T09:04:07;6.68;;;5.05;;
52188;SDS011;38162;45.926;13.608;2024-03-02T09:06:48;9.75;;;5.28;;
52188;SDS011;38162;45.926;13.608;2024-03-02T09:16:48;9.93;;;6.03;;
52188;SDS011;38162;45.926;13.608;2024-03-02T09:22:41;11.05;;;4.75;;
52188;SDS011;38162;45.926;13.608;2024-03-02T09:25:07;9.25;;;5.03;;
52188;SDS011;38162;45.926;13.608;2024-03-02T09:27:37;9.63;;;4.25;;
52188;SDS011;38162;45.926;13.608;2024-03-02T09:30:04;8.10;;;4.97;;
52188;SDS011;38162;45.926;13.608;2024-03-02T09:32:38;8.45;;;5.43;;
52188;SDS011;38162;45.926;13.608;2024-03-02T09:35:05;10.93;;;5.75;;
52188;SDS011;38162;45.926;13.608;2024-03-02T09:37:31;8.38;;;5.22;;
52188;SDS011;38162;45.926;13.608;2024-03-02T09:39:56;10.70;;;6.18;;
52188;SDS011;38162;45.926;13.608;2024-03-02T09:42:22;8.32;;;6.40;;
52188;SDS011;38162;45.926;13.608;2024-03-02T09:44:49;12.82;;;7.03;;
52188;SDS011;38162;45.926;13.608;2024-03-02T09:47:15;7.50;;;5.72;;
52188;SDS011;38162;45.926;13.608;2024-03-02T09:49:40;9.23;;;4.85;;
52188;SDS011;38162;45.926;13.608;2024-03-02T09:52:06;11.77;;;4.47;;
52188;SDS011;38162;45.926;13.608;2024-03-02T09:54:32;8.02;;;4.15;;
52188;SDS011;38162;45.926;13.608;2024-03-02T09:56:58;5.35;;;3.80;;
52188;SDS011;38162;45.926;13.608;2024-03-02T09:59:26;7.65;;;3.90;;
52188;SDS011;38162;45.926;13.608;2024-03-02T10:01:56;6.63;;;3.40;;
52188;SDS011;38162;45.926;13.608;2024-03-02T10:04:25;6.45;;;4.45;;
52188;SDS011;38162;45.926;13.608;2024-03-02T10:06:51;9.82;;;4.78;;
52188;SDS011;38162;45.926;13.608;2024-03-02T10:09:34;12.00;;;7.28;;
52188;SDS011;38162;45.926;13.608;2024-03-02T10:12:07;13.23;;;7.78;;
52188;SDS011;38162;45.926;13.608;2024-03-02T10:14:34;9.00;;;6.15;;
52188;SDS011;38162;45.926;13.608;2024-03-02T10:17:03;7.80;;;5.10;;
52188;SDS011;38162;45.926;13.608;2024-03-02T10:19:31;7.03;;;4.75;;
52188;SDS011;38162;45.926;13.608;2024-03-02T10:21:59;7.22;;;4.35;;
52188;SDS011;38162;45.926;13.608;2024-03-02T10:24:27;6.00;;;3.45;;
52188;SDS011;38162;45.926;13.608;2024-03-02T10:26:59;7.05;;;3.40;;
52188;SDS011;38162;45.926;13.608;2024-03-02T10:29:25;4.25;;;2.83;;
52188;SDS011;38162;45.926;13.608;2024-03-02T10:31:57;5.22;;;3.00;;
52188;SDS011;38162;45.926;13.608;2024-03-02T10:34:48;5.30;;;3.03;;
52188;SDS011;38162;45.926;13.608;2024-03-02T10:37:46;6.22;;;2.90;;
52188;SDS011;38162;45.926;13.608;2024-03-02T10:40:36;4.32;;;2.90;;
52188;SDS011;38162;45.926;13.608;2024-03-02T10:54:16;6.55;;;3.05;;
52188;SDS011;38162;45.926;13.608;2024-03-02T11:01:12;5.00;;;3.03;;
52188;SDS011;38162;45.926;13.608;2024-03-02T11:03:39;6.30;;;3.15;;
52188;SDS011;38162;45.926;13.608;2024-03-02T11:06:07;10.57;;;6.90;;
52188;SDS011;38162;45.926;13.608;2024-03-02T11:08:34;10.48;;;7.10;;
52188;SDS011;38162;45.926;13.608;2024-03-02T11:11:09;8.10;;;4.55;;
52188;SDS011;38162;45.926;13.608;2024-03-02T11:13:40;4.82;;;3.47;;
52188;SDS011;38162;45.926;13.608;2024-03-02T11:18:51;4.47;;;2.83;;
52188;SDS011;38162;45.926;13.608;2024-03-02T11:21:17;5.35;;;3.03;;
52188;SDS011;38162;45.926;13.608;2024-03-02T11:23:44;6.90;;;4.70;;
52188;SDS011;38162;45.926;13.608;2024-03-02T11:26:16;9.75;;;5.75;;
52188;SDS011;38162;45.926;13.608;2024-03-02T11:28:45;5.70;;;4.13;;
52188;SDS011;38162;45.926;13.608;2024-03-02T11:31:11;4.57;;;2.65;;
52188;SDS011;38162;45.926;13.608;2024-03-02T11:33:37;3.17;;;2.20;;
52188;SDS011;38162;45.926;13.608;2024-03-02T11:36:03;6.75;;;2.08;;
52188;SDS011;38162;45.926;13.608;2024-03-02T11:38:32;7.40;;;2.20;;
52188;SDS011;38162;45.926;13.608;2024-03-02T11:40:59;2.42;;;1.52;;
52188;SDS011;38162;45.926;13.608;2024-03-02T11:43:27;5.00;;;1.55;;
52188;SDS011;38162;45.926;13.608;2024-03-02T11:45:58;4.60;;;1.67;;
52188;SDS011;38162;45.926;13.608;2024-03-02T11:48:25;3.65;;;1.90;;
52188;SDS011;38162;45.926;13.608;2024-03-02T11:50:51;3.95;;;1.60;;
52188;SDS011;38162;45.926;13.608;2024-03-02T11:53:18;3.58;;;1.55;;
52188;SDS011;38162;45.926;13.608;2024-03-02T11:55:46;3.25;;;1.60;;
52188;SDS011;38162;45.926;13.608;2024-03-02T11:58:14;3.63;;;1.25;;
52188;SDS011;38162;45.926;13.608;2024-03-02T12:00:56;3.05;;;1.33;;
52188;SDS011;38162;45.926;13.608;2024-03-02T12:03:23;24.45;;;17.27;;
52188;SDS011;38162;45.926;13.608;2024-03-02T12:05:53;7.90;;;5.30;;
52188;SDS011;38162;45.926;13.608;2024-03-02T12:08:20;2.45;;;1.60;;
52188;SDS011;38162;45.926;13.608;2024-03-02T12:14:27;1.92;;;1.10;;
52188;SDS011;38162;45.926;13.608;2024-03-02T12:17:33;3.67;;;0.57;;
52188;SDS011;38162;45.926;13.608;2024-03-02T12:27:45;1.77;;;0.60;;
52188;SDS011;38162;45.926;13.608;2024-03-02T12:33:26;1.50;;;0.90;;
52188;SDS011;38162;45.926;13.608;2024-03-02T12:35:54;4.18;;;0.90;;
52188;SDS011;38162;45.926;13.608;2024-03-02T12:38:23;1.75;;;0.80;;
52188;SDS011;38162;45.926;13.608;2024-03-02T12:40:51;3.38;;;0.90;;
52188;SDS011;38162;45.926;13.608;2024-03-02T12:43:17;5.05;;;1.25;;
52188;SDS011;38162;45.926;13.608;2024-03-02T12:45:43;6.05;;;1.50;;
52188;SDS011;38162;45.926;13.608;2024-03-02T12:48:09;3.88;;;0.70;;
52188;SDS011;38162;45.926;13.608;2024-03-02T12:50:35;3.15;;;0.80;;
52188;SDS011;38162;45.926;13.608;2024-03-02T12:53:01;4.25;;;0.68;;
52188;SDS011;38162;45.926;13.608;2024-03-02T12:55:27;3.30;;;0.60;;
52188;SDS011;38162;45.926;13.608;2024-03-02T12:57:54;3.35;;;0.93;;
52188;SDS011;38162;45.926;13.608;2024-03-02T13:00:20;3.45;;;0.70;;
52188;SDS011;38162;45.926;13.608;2024-03-02T13:02:46;3.15;;;0.88;;
52188;SDS011;38162;45.926;13.608;2024-03-02T13:05:13;3.10;;;0.68;;
52188;SDS011;38162;45.926;13.608;2024-03-02T13:07:39;2.45;;;1.02;;
52188;SDS011;38162;45.926;13.608;2024-03-02T13:10:06;4.03;;;1.00;;
52188;SDS011;38162;45.926;13.608;2024-03-02T13:12:35;1.75;;;0.80;;
52188;SDS011;38162;45.926;13.608;2024-03-02T13:15:01;2.97;;;0.90;;
52188;SDS011;38162;45.926;13.608;2024-03-02T13:17:28;1.95;;;0.90;;
52188;SDS011;38162;45.926;13.608;2024-03-02T13:19:55;3.10;;;1.20;;
52188;SDS011;38162;45.926;13.608;2024-03-02T13:22:22;3.78;;;1.80;;
52188;SDS011;38162;45.926;13.608;2024-03-02T13:24:48;3.05;;;1.05;;
52188;SDS011;38162;45.926;13.608;2024-03-02T13:27:15;4.43;;;1.20;;
52188;SDS011;38162;45.926;13.608;2024-03-02T13:29:41;3.80;;;1.40;;
52188;SDS011;38162;45.926;13.608;2024-03-02T13:32:07;9.15;;;1.23;;
52188;SDS011;38162;45.926;13.608;2024-03-02T13:34:35;35.53;;;2.78;;
52188;SDS011;38162;45.926;13.608;2024-03-02T13:37:02;5.72;;;1.40;;
52188;SDS011;38162;45.926;13.608;2024-03-02T13:39:30;2.90;;;1.35;;
52188;SDS011;38162;45.926;13.608;2024-03-02T13:42:05;5.43;;;1.00;;
52188;SDS011;38162;45.926;13.608;2024-03-02T13:58:44;6.85;;;2.03;;
52188;SDS011;38162;45.926;13.608;2024-03-02T14:01:47;7.03;;;2.03;;
52188;SDS011;38162;45.926;13.608;2024-03-02T14:04:25;5.70;;;1.77;;
52188;SDS011;38162;45.926;13.608;2024-03-02T14:07:00;5.35;;;1.85;;
52188;SDS011;38162;45.926;13.608;2024-03-02T14:09:47;4.22;;;1.73;;
52188;SDS011;38162;45.926;13.608;2024-03-02T14:12:13;3.70;;;1.75;;
52188;SDS011;38162;45.926;13.608;2024-03-02T14:14:38;4.00;;;1.40;;
52188;SDS011;38162;45.926;13.608;2024-03-02T14:17:04;6.35;;;1.60;;
52188;SDS011;38162;45.926;13.608;2024-03-02T14:19:31;3.80;;;1.30;;
52188;SDS011;38162;45.926;13.608;2024-03-02T14:21:57;3.70;;;1.45;;
52188;SDS011;38162;45.926;13.608;2024-03-02T14:24:23;5.03;;;1.25;;
52188;SDS011;38162;45.926;13.608;2024-03-02T14:26:51;4.55;;;1.52;;
52188;SDS011;38162;45.926;13.608;2024-03-02T14:29:18;5.60;;;1.75;;
52188;SDS011;38162;45.926;13.608;2024-03-02T14:31:43;3.40;;;1.65;;
52188;SDS011;38162;45.926;13.608;2024-03-02T14:34:13;5.57;;;1.85;;
52188;SDS011;38162;45.926;13.608;2024-03-02T14:36:39;6.70;;;2.15;;
52188;SDS011;38162;45.926;13.608;2024-03-02T14:39:06;2.92;;;1.60;;
52188;SDS011;38162;45.926;13.608;2024-03-02T14:41:35;7.82;;;2.22;;
52188;SDS011;38162;45.926;13.608;2024-03-02T14:44:01;7.18;;;2.42;;
52188;SDS011;38162;45.926;13.608;2024-03-02T14:46:28;5.07;;;2.50;;
52188;SDS011;38162;45.926;13.608;2024-03-02T14:48:54;7.47;;;2.97;;
52188;SDS011;38162;45.926;13.608;2024-03-02T14:51:20;6.03;;;3.00;;
52188;SDS011;38162;45.926;13.608;2024-03-02T14:53:45;9.48;;;5.75;;
52188;SDS011;38162;45.926;13.608;2024-03-02T14:56:11;11.63;;;7.85;;
52188;SDS011;38162;45.926;13.608;2024-03-02T14:58:38;8.38;;;6.05;;
52188;SDS011;38162;45.926;13.608;2024-03-02T15:01:04;5.82;;;3.70;;
52188;SDS011;38162;45.926;13.608;2024-03-02T15:03:31;6.28;;;3.55;;
52188;SDS011;38162;45.926;13.608;2024-03-02T15:05:57;7.50;;;2.85;;
52188;SDS011;38162;45.926;13.608;2024-03-02T15:08:24;8.18;;;3.70;;
52188;SDS011;38162;45.926;13.608;2024-03-02T15:10:49;7.57;;;3.30;;
52188;SDS011;38162;45.926;13.608;2024-03-02T15:13:15;6.47;;;3.67;;
52188;SDS011;38162;45.926;13.608;2024-03-02T15:15:42;5.93;;;3.90;;
52188;SDS011;38162;45.926;13.608;2024-03-02T15:18:23;8.85;;;4.35;;
52188;SDS011;38162;45.926;13.608;2024-03-02T15:21:16;6.65;;;4.05;;
52188;SDS011;38162;45.926;13.608;2024-03-02T15:49:23;16.27;;;12.50;;
52188;SDS011;38162;45.926;13.608;2024-03-02T15:51:49;13.52;;;10.98;;
52188;SDS011;38162;45.926;13.608;2024-03-02T15:54:15;13.38;;;8.57;;
52188;SDS011;38162;45.926;13.608;2024-03-02T15:56:41;11.13;;;7.88;;
52188;SDS011;38162;45.926;13.608;2024-03-02T15:59:07;11.27;;;6.63;;
52188;SDS011;38162;45.926;13.608;2024-03-02T16:01:32;6.38;;;5.35;;
52188;SDS011;38162;45.926;13.608;2024-03-02T16:03:58;8.95;;;5.95;;
52188;SDS011;38162;45.926;13.608;2024-03-02T16:06:24;7.32;;;3.80;;
52188;SDS011;38162;45.926;13.608;2024-03-02T16:08:50;4.45;;;3.28;;
52188;SDS011;38162;45.926;13.608;2024-03-02T16:11:16;7.25;;;2.53;;
52188;SDS011;38162;45.926;13.608;2024-03-02T16:13:42;5.72;;;2.58;;
52188;SDS011;38162;45.926;13.608;2024-03-02T16:16:08;5.18;;;2.53;;
52188;SDS011;38162;45.926;13.608;2024-03-02T16:18:34;6.93;;;2.60;;
52188;SDS011;38162;45.926;13.608;2024-03-02T16:20:59;5.35;;;2.92;;
52188;SDS011;38162;45.926;13.608;2024-03-02T16:23:25;4.78;;;2.60;;
52188;SDS011;38162;45.926;13.608;2024-03-02T16:25:51;6.20;;;2.63;;
52188;SDS011;38162;45.926;13.608;2024-03-02T16:28:17;4.85;;;2.78;;
52188;SDS011;38162;45.926;13.608;2024-03-02T16:30:42;4.95;;;2.60;;
52188;SDS011;38162;45.926;13.608;2024-03-02T16:33:08;5.32;;;2.58;;
52188;SDS011;38162;45.926;13.608;2024-03-02T16:35:34;3.58;;;2.15;;
52188;SDS011;38162;45.926;13.608;2024-03-02T16:38:00;4.97;;;2.13;;
52188;SDS011;38162;45.926;13.608;2024-03-02T16:40:25;5.32;;;2.83;;
52188;SDS011;38162;45.926;13.608;2024-03-02T16:42:52;7.75;;;2.83;;
52188;SDS011;38162;45.926;13.608;2024-03-02T16:45:18;4.40;;;2.92;;
52188;SDS011;38162;45.926;13.608;2024-03-02T16:47:44;6.65;;;3.20;;
52188;SDS011;38162;45.926;13.608;2024-03-02T16:50:10;9.38;;;3.00;;
52188;SDS011;38162;45.926;13.608;2024-03-02T16:52:37;6.38;;;2.80;;
52188;SDS011;38162;45.926;13.608;2024-03-02T16:55:12;6.95;;;3.30;;
52188;SDS011;38162;45.926;13.608;2024-03-02T17:00:45;6.10;;;3.05;;
52188;SDS011;38162;45.926;13.608;2024-03-02T17:03:23;5.45;;;2.92;;
52188;SDS011;38162;45.926;13.608;2024-03-02T17:06:39;4.53;;;3.25;;
52188;SDS011;38162;45.926;13.608;2024-03-02T17:12:57;8.30;;;4.40;;
52188;SDS011;38162;45.926;13.608;2024-03-02T17:16:22;9.48;;;5.30;;
52188;SDS011;38162;45.926;13.608;2024-03-02T17:18:51;7.80;;;4.78;;
52188;SDS011;38162;45.926;13.608;2024-03-02T17:21:17;6.07;;;3.90;;
52188;SDS011;38162;45.926;13.608;2024-03-02T17:23:44;5.13;;;2.50;;
52188;SDS011;38162;45.926;13.608;2024-03-02T17:26:09;6.78;;;2.42;;